TimeEST,TemperatureF,Dew PointF,Humidity,Sea Level PressureIn,VisibilityMPH,Wind Direction,Wind SpeedMPH,Gust SpeedMPH,PrecipitationIn,Events,Conditions,WindDirDegrees,DateUTC
12:54 AM,28.0,23.0,81,30.45,10.0,Calm,Calm,-,N/A,,Clear,0,2013-01-08 05:54:00
1:54 AM,27.0,23.0,85,30.44,10.0,Calm,Calm,-,N/A,,Clear,0,2013-01-08 06:54:00
2:54 AM,27.0,21.9,81,30.44,10.0,Calm,Calm,-,N/A,,Clear,0,2013-01-08 07:54:00
3:54 AM,30.0,24.1,79,30.43,9.0,Calm,Calm,-,N/A,,Clear,0,2013-01-08 08:54:00
4:54 AM,27.0,21.9,81,30.43,9.0,Calm,Calm,-,N/A,,Clear,0,2013-01-08 09:54:00
5:54 AM,27.0,21.9,81,30.44,10.0,Calm,Calm,-,N/A,,Clear,0,2013-01-08 10:54:00
6:54 AM,26.1,21.0,81,30.46,9.0,Calm,Calm,-,N/A,,Clear,0,2013-01-08 11:54:00
7:54 AM,27.0,21.9,81,30.47,9.0,Calm,Calm,-,N/A,,Clear,0,2013-01-08 12:54:00
8:54 AM,36.0,30.9,82,30.49,8.0,Calm,Calm,-,N/A,,Clear,0,2013-01-08 13:54:00
9:54 AM,46.0,35.1,66,30.46,10.0,South,6.9,-,N/A,,Clear,180,2013-01-08 14:54:00
10:54 AM,51.1,34.0,52,30.46,10.0,SSW,9.2,-,N/A,,Clear,210,2013-01-08 15:54:00
11:54 AM,53.1,30.9,43,30.41,10.0,SSW,11.5,-,N/A,,Clear,210,2013-01-08 16:54:00
12:54 PM,57.0,30.0,36,30.40,10.0,SW,8.1,-,N/A,,Clear,220,2013-01-08 17:54:00
1:54 PM,55.9,28.0,34,30.39,10.0,SW,8.1,-,N/A,,Scattered Clouds,220,2013-01-08 18:54:00
2:54 PM,55.0,28.9,37,30.40,10.0,SSW,9.2,-,N/A,,Overcast,210,2013-01-08 19:54:00
3:54 PM,52.0,30.0,43,30.42,10.0,SW,6.9,-,N/A,,Overcast,230,2013-01-08 20:54:00
4:54 PM,50.0,32.0,50,30.42,10.0,West,3.5,-,N/A,,Overcast,260,2013-01-08 21:54:00
5:54 PM,46.0,32.0,58,30.42,10.0,Calm,Calm,-,N/A,,Overcast,0,2013-01-08 22:54:00
6:54 PM,46.0,34.0,63,30.42,10.0,Calm,Calm,-,N/A,,Overcast,0,2013-01-08 23:54:00
7:54 PM,46.0,35.1,66,30.43,10.0,Calm,Calm,-,N/A,,Overcast,0,2013-01-09 00:54:00
8:54 PM,44.1,34.0,68,30.41,10.0,Calm,Calm,-,N/A,,Clear,0,2013-01-09 01:54:00
9:54 PM,44.1,36.0,73,30.41,10.0,Calm,Calm,-,N/A,,Overcast,0,2013-01-09 02:54:00
10:54 PM,44.1,36.0,73,30.41,10.0,Calm,Calm,-,N/A,,Overcast,0,2013-01-09 03:54:00
11:54 PM,44.1,36.0,73,30.40,10.0,Calm,Calm,-,N/A,,Mostly Cloudy,0,2013-01-09 04:54:00